createdAt,value
2023-04-19T00:00:58.152Z,77.5313
2023-04-19T00:01:59.624Z,77.2961
2023-04-19T00:03:01.332Z,77.3735
2023-04-19T00:04:03.060Z,77.6364
2023-04-19T00:05:05.351Z,77.4342
2023-04-19T00:06:07.097Z,77.2568
2023-04-19T00:07:08.478Z,77.3588
2023-04-19T00:08:09.938Z,77.7308
2023-04-19T00:09:11.304Z,77.3677
2023-04-19T00:10:12.701Z,77.9783
2023-04-19T00:11:14.092Z,77.9934
2023-04-19T00:12:15.476Z,77.3577
2023-04-19T00:13:16.875Z,77.1792
2023-04-19T00:14:18.389Z,77.0190
2023-04-19T00:15:19.918Z,77.3828
2023-04-19T00:16:21.389Z,77.7627
2023-04-19T00:17:22.842Z,77.6418
2023-04-19T00:18:24.329Z,77.5261
2023-04-19T00:19:25.749Z,77.8666
2023-04-19T00:20:27.408Z,77.7685
2023-04-19T00:21:29.080Z,77.5797
2023-04-19T00:22:30.526Z,77.6878
2023-04-19T00:23:31.997Z,77.7320
2023-04-19T00:24:33.436Z,77.6240
2023-04-19T00:25:34.890Z,77.8230
2023-04-19T00:26:36.282Z,77.8849
2023-04-19T00:27:37.638Z,78.0608
2023-04-19T00:28:39.034Z,78.2613
2023-04-19T00:29:40.422Z,78.4566
2023-04-19T00:30:41.855Z,77.6190
2023-04-19T00:31:43.255Z,77.7115
2023-04-19T00:32:44.674Z,77.9795
2023-04-19T00:33:46.027Z,77.9098
2023-04-19T00:34:47.414Z,78.2718
2023-04-19T00:35:48.753Z,78.3086
2023-04-19T00:36:50.144Z,78.1184
2023-04-19T00:37:51.548Z,78.0305
2023-04-19T00:38:52.959Z,77.9680
2023-04-19T00:39:54.344Z,78.3681
2023-04-19T00:40:55.730Z,77.9692
2023-04-19T00:41:57.072Z,78.1097
2023-04-19T00:42:58.478Z,77.9122
2023-04-19T00:43:59.841Z,77.6206
2023-04-19T00:45:01.409Z,77.6856
2023-04-19T00:46:02.838Z,77.6128
2023-04-19T00:47:04.226Z,78.2439
2023-04-19T00:48:05.865Z,78.4764
2023-04-19T00:49:07.213Z,78.1159
2023-04-19T00:50:08.610Z,78.0768
2023-04-19T00:51:09.983Z,78.1436
2023-04-19T00:52:11.400Z,78.3017
2023-04-19T00:53:12.801Z,78.2749
2023-04-19T00:54:14.443Z,78.2074
2023-04-19T00:55:16.298Z,78.1511
2023-04-19T00:56:17.697Z,78.3113
2023-04-19T00:57:19.060Z,78.3315
2023-04-19T00:58:20.412Z,78.0530
2023-04-19T00:59:21.756Z,78.2409
2023-04-19T01:00:23.145Z,78.4560
2023-04-19T01:01:24.510Z,78.2330
2023-04-19T01:02:25.930Z,78.3454
2023-04-19T01:03:27.889Z,78.6143
2023-04-19T01:04:29.734Z,78.7883
2023-04-19T01:05:31.153Z,78.5696
2023-04-19T01:06:32.508Z,78.6689
2023-04-19T01:07:33.944Z,78.1444
2023-04-19T01:08:35.309Z,78.3538
2023-04-19T01:09:36.708Z,78.1101
2023-04-19T01:10:38.045Z,78.3228
2023-04-19T01:11:40.782Z,78.7427
2023-04-19T01:12:41.436Z,78.5671
2023-04-19T01:13:42.803Z,78.4511
2023-04-19T01:14:44.202Z,78.9745
2023-04-19T01:15:45.620Z,79.5108
2023-04-19T01:16:46.995Z,79.0516
2023-04-19T01:17:48.399Z,79.1887
2023-04-19T01:18:49.808Z,79.2104
2023-04-19T01:19:51.202Z,79.1970
2023-04-19T01:20:52.589Z,78.9557
2023-04-19T01:21:54.038Z,78.8443
2023-04-19T01:22:55.393Z,78.9379
2023-04-19T01:23:56.973Z,79.3504
2023-04-19T01:24:58.365Z,79.1708
2023-04-19T01:25:59.885Z,79.0969
2023-04-19T01:27:01.317Z,79.2796
2023-04-19T01:28:02.814Z,79.4421
2023-04-19T01:29:04.230Z,79.3102
2023-04-19T01:30:05.573Z,79.2838
2023-04-19T01:31:06.960Z,79.4636
2023-04-19T01:32:08.277Z,79.3002
2023-04-19T01:33:09.618Z,79.3788
2023-04-19T01:34:10.983Z,79.2816
2023-04-19T01:35:12.328Z,79.1511
2023-04-19T01:36:13.673Z,78.8658
2023-04-19T01:37:15.010Z,78.9156
2023-04-19T01:38:16.497Z,79.0295
2023-04-19T01:39:18.870Z,79.1819
2023-04-19T01:40:20.301Z,79.2232
2023-04-19T01:41:21.643Z,79.1773
2023-04-19T01:42:23.101Z,79.5459
2023-04-19T01:43:24.522Z,79.4823
2023-04-19T01:44:25.913Z,79.6005
2023-04-19T01:45:27.315Z,79.5923
2023-04-19T01:46:28.888Z,79.4009
2023-04-19T01:47:30.308Z,79.6246
2023-04-19T01:48:31.758Z,79.6530
2023-04-19T01:49:33.146Z,79.4002
2023-04-19T01:50:34.591Z,79.1637
2023-04-19T01:51:36.013Z,79.2702
2023-04-19T01:52:37.485Z,79.6993
2023-04-19T01:53:38.920Z,79.5187
2023-04-19T01:54:40.287Z,79.4962
2023-04-19T01:55:41.742Z,79.5562
2023-04-19T01:56:43.209Z,79.6616
2023-04-19T01:57:44.609Z,79.5455
2023-04-19T01:58:46.057Z,79.6563
2023-04-19T01:59:47.430Z,79.6786
2023-04-19T02:00:48.919Z,79.8434
2023-04-19T02:01:50.348Z,79.6826
2023-04-19T02:02:51.989Z,79.6959
2023-04-19T02:03:53.598Z,80.0863
2023-04-19T02:04:55.526Z,79.9307
2023-04-19T02:05:56.963Z,79.8427
2023-04-19T02:06:58.431Z,79.8140
2023-04-19T02:07:59.876Z,79.8771
2023-04-19T02:09:01.258Z,79.6471
2023-04-19T02:10:02.773Z,79.7973
2023-04-19T02:11:04.221Z,79.8377
2023-04-19T02:12:05.623Z,79.8611
2023-04-19T02:13:07.139Z,79.7203
2023-04-19T02:14:08.542Z,79.8867
2023-04-19T02:15:09.969Z,79.8083
2023-04-19T02:16:11.550Z,79.6971
2023-04-19T02:17:13.037Z,79.9412
2023-04-19T02:18:14.423Z,79.6161
2023-04-19T02:19:15.875Z,79.8973
2023-04-19T02:20:17.299Z,79.8769
2023-04-19T02:21:18.724Z,80.0135
2023-04-19T02:22:20.147Z,79.6701
2023-04-19T02:23:21.608Z,79.3608
2023-04-19T02:24:23.014Z,79.5562
2023-04-19T02:25:24.467Z,79.4407
2023-04-19T02:26:26.030Z,79.8303
2023-04-19T02:27:27.489Z,80.1682
2023-04-19T02:28:28.888Z,80.0371
2023-04-19T02:29:30.382Z,79.7710
2023-04-19T02:30:31.858Z,79.6719
2023-04-19T02:31:33.300Z,79.7606
2023-04-19T02:32:34.790Z,79.7764
2023-04-19T02:33:36.127Z,80.0277
2023-04-19T02:34:37.599Z,80.2636
2023-04-19T02:35:38.966Z,79.9780
2023-04-19T02:36:40.347Z,79.9610
2023-04-19T02:37:41.829Z,79.8328
2023-04-19T02:38:43.190Z,79.7898
2023-04-19T02:39:44.595Z,79.7267
2023-04-19T02:40:46.035Z,79.9354
2023-04-19T02:41:47.558Z,79.8531
2023-04-19T02:42:48.963Z,79.6305
2023-04-19T02:43:50.411Z,79.3846
2023-04-19T02:44:51.995Z,79.4943
2023-04-19T02:45:53.476Z,79.6550
2023-04-19T02:46:54.893Z,79.3245
2023-04-19T02:47:56.369Z,79.2120
2023-04-19T02:48:57.939Z,79.5128
2023-04-19T02:49:59.328Z,79.6127
2023-04-19T02:51:00.773Z,79.7159
2023-04-19T02:52:02.241Z,79.8606
2023-04-19T02:53:03.785Z,80.1722
2023-04-19T02:54:05.273Z,80.2311
2023-04-19T02:55:06.659Z,80.3664
2023-04-19T02:56:08.073Z,80.3169
2023-04-19T02:57:09.526Z,79.7178
2023-04-19T02:58:10.921Z,79.7979
2023-04-19T02:59:12.370Z,79.7630
2023-04-19T03:00:13.861Z,79.6530
2023-04-19T03:01:15.643Z,79.6238
2023-04-19T03:02:17.118Z,79.5066
2023-04-19T03:03:18.593Z,79.7502
2023-04-19T03:04:19.998Z,79.7820
2023-04-19T03:05:21.445Z,79.8801
2023-04-19T03:06:22.858Z,80.2629
2023-04-19T03:07:24.378Z,80.4675
2023-04-19T03:08:25.799Z,80.4001
2023-04-19T03:09:27.227Z,80.2871
2023-04-19T03:10:28.685Z,80.6289
2023-04-19T03:11:30.091Z,80.6334
2023-04-19T03:12:31.473Z,80.8400
2023-04-19T03:13:32.968Z,80.7095
2023-04-19T03:14:34.362Z,80.8288
2023-04-19T03:15:35.815Z,80.8363
2023-04-19T03:16:37.252Z,80.8844
2023-04-19T03:17:38.697Z,80.7521
2023-04-19T03:18:40.131Z,80.4307
2023-04-19T03:19:41.609Z,80.4452
2023-04-19T03:20:43.058Z,80.4436
2023-04-19T03:21:44.519Z,80.6546
2023-04-19T03:22:45.982Z,80.8912
2023-04-19T03:23:47.380Z,81.2392
2023-04-19T03:24:48.787Z,80.8548
2023-04-19T03:25:50.250Z,80.6611
2023-04-19T03:26:51.725Z,80.6214
2023-04-19T03:27:53.155Z,80.9412
2023-04-19T03:28:54.660Z,80.7456
2023-04-19T03:29:56.179Z,80.5168
2023-04-19T03:30:57.676Z,80.5682
2023-04-19T03:31:59.113Z,80.7726
2023-04-19T03:33:00.520Z,80.8335
2023-04-19T03:34:01.940Z,80.9046
2023-04-19T03:35:03.348Z,80.9754
2023-04-19T03:36:04.797Z,80.9412
2023-04-19T03:37:06.190Z,80.9867
2023-04-19T03:38:07.632Z,81.1274
2023-04-19T03:39:09.082Z,80.9592
2023-04-19T03:40:10.503Z,81.0675
2023-04-19T03:41:11.949Z,81.2107
2023-04-19T03:42:13.420Z,81.1344
2023-04-19T03:43:14.839Z,80.9171
2023-04-19T03:44:16.432Z,80.9419
2023-04-19T03:45:18.194Z,80.5870
2023-04-19T03:46:19.649Z,80.6262
2023-04-19T03:47:21.253Z,80.5533
2023-04-19T03:48:22.837Z,80.5344
2023-04-19T03:49:24.294Z,80.9327
2023-04-19T03:50:25.737Z,80.8840
2023-04-19T03:51:27.158Z,80.7924
2023-04-19T03:52:28.567Z,80.8560
2023-04-19T03:53:29.970Z,80.7568
2023-04-19T03:54:31.375Z,80.6549
2023-04-19T03:55:32.841Z,80.8485
2023-04-19T03:56:34.438Z,80.8609
2023-04-19T03:57:35.863Z,80.8242
2023-04-19T03:58:37.381Z,80.6535
2023-04-19T03:59:38.800Z,80.5637
2023-04-19T04:00:40.258Z,80.4498
2023-04-19T04:01:41.895Z,80.5077
2023-04-19T04:02:43.837Z,80.4109
2023-04-19T04:03:45.634Z,80.3732
2023-04-19T04:04:47.486Z,80.4038
2023-04-19T04:05:48.929Z,80.5446
2023-04-19T04:06:50.406Z,80.6053
2023-04-19T04:07:51.808Z,80.7492
2023-04-19T04:08:53.199Z,80.6910
2023-04-19T04:09:54.618Z,80.7940
2023-04-19T04:10:56.026Z,80.6199
2023-04-19T04:11:57.410Z,80.6902
2023-04-19T04:12:58.899Z,80.3097
2023-04-19T04:14:00.392Z,80.3900
2023-04-19T04:15:01.863Z,80.4620
2023-04-19T04:16:03.290Z,80.6058
2023-04-19T04:17:04.716Z,80.7257
2023-04-19T04:18:08.566Z,80.8854
2023-04-19T04:19:07.910Z,80.8085
2023-04-19T04:20:09.328Z,80.6425
2023-04-19T04:21:10.717Z,80.6950
2023-04-19T04:22:12.163Z,80.8400
2023-04-19T04:23:13.566Z,81.0458
2023-04-19T04:24:15.144Z,80.9336
2023-04-19T04:25:16.686Z,80.7320
2023-04-19T04:26:18.086Z,80.3317
2023-04-19T04:27:19.584Z,80.2581
2023-04-19T04:28:21.274Z,80.5977
2023-04-19T04:29:22.735Z,80.7563
2023-04-19T04:30:26.554Z,80.9721
2023-04-19T04:31:24.258Z,80.7618
2023-04-19T04:32:25.750Z,80.6370
2023-04-19T04:33:27.232Z,80.3587
2023-04-19T04:34:28.724Z,80.4861
2023-04-19T04:35:30.199Z,80.4927
2023-04-19T04:36:31.645Z,80.3772
2023-04-19T04:37:33.084Z,80.2063
2023-04-19T04:38:34.576Z,80.1939
2023-04-19T04:39:35.978Z,80.1518
2023-04-19T04:40:37.383Z,80.2240
2023-04-19T04:41:38.828Z,80.4864
2023-04-19T04:42:40.295Z,80.4940
2023-04-19T04:43:41.944Z,80.1990
2023-04-19T04:44:43.381Z,80.1173
2023-04-19T04:45:44.862Z,80.3381
2023-04-19T04:46:46.331Z,80.4188
2023-04-19T04:47:47.806Z,80.3431
2023-04-19T04:48:49.279Z,80.3626
2023-04-19T04:49:50.696Z,80.1159
2023-04-19T04:50:52.113Z,79.9859
2023-04-19T04:51:53.560Z,80.2226
2023-04-19T04:52:54.972Z,80.4109
2023-04-19T04:53:56.516Z,80.3709
2023-04-19T04:54:57.978Z,80.4439
2023-04-19T04:55:59.672Z,80.4994
2023-04-19T04:57:01.189Z,80.3432
2023-04-19T04:58:02.614Z,80.2558
2023-04-19T04:59:04.000Z,80.1617
2023-04-19T05:00:05.435Z,80.3892
2023-04-19T05:01:06.888Z,80.2382
2023-04-19T05:02:08.469Z,79.9309
2023-04-19T05:03:10.060Z,79.9059
2023-04-19T05:04:11.587Z,79.7100
2023-04-19T05:05:13.086Z,79.7088
2023-04-19T05:06:14.501Z,79.6245
2023-04-19T05:07:16.173Z,79.7927
2023-04-19T05:08:17.594Z,80.0458
2023-04-19T05:09:18.998Z,79.8847
2023-04-19T05:10:20.457Z,79.6044
2023-04-19T05:11:21.885Z,79.4164
2023-04-19T05:12:23.367Z,79.4277
2023-04-19T05:13:24.829Z,79.4409
2023-04-19T05:14:26.280Z,79.6463
2023-04-19T05:15:27.709Z,79.5781
2023-04-19T05:16:29.310Z,79.5951
2023-04-19T05:17:30.825Z,79.6932
2023-04-19T05:18:32.213Z,79.8490
2023-04-19T05:19:33.654Z,79.8495
2023-04-19T05:20:35.089Z,79.6723
2023-04-19T05:21:36.577Z,79.5887
2023-04-19T05:22:37.978Z,79.7458
2023-04-19T05:23:39.453Z,79.6775
2023-04-19T05:24:42.375Z,79.5900
2023-04-19T05:25:41.485Z,80.0957
2023-04-19T05:26:42.883Z,79.9964
2023-04-19T05:27:44.308Z,80.0417
2023-04-19T05:28:45.754Z,80.0239
2023-04-19T05:29:47.175Z,79.7980
2023-04-19T05:30:48.660Z,79.6520
2023-04-19T05:31:50.101Z,79.4267
2023-04-19T05:32:51.554Z,79.1249
2023-04-19T05:33:53.047Z,79.2187
2023-04-19T05:34:54.529Z,79.1552
2023-04-19T05:35:55.947Z,79.3723
2023-04-19T05:36:57.397Z,79.5157
2023-04-19T05:37:58.821Z,79.2591
2023-04-19T05:39:00.220Z,79.2538
2023-04-19T05:40:01.667Z,79.5392
2023-04-19T05:41:03.048Z,79.6609
2023-04-19T05:42:04.462Z,79.4131
2023-04-19T05:43:05.870Z,79.4773
2023-04-19T05:44:07.281Z,79.4579
2023-04-19T05:45:08.679Z,79.5249
2023-04-19T05:46:10.165Z,79.7187
2023-04-19T05:47:11.596Z,79.6309
2023-04-19T05:48:12.987Z,79.4288
2023-04-19T05:49:14.450Z,79.6629
2023-04-19T05:50:15.845Z,79.6353
2023-04-19T05:51:17.284Z,79.4813
2023-04-19T05:52:18.686Z,79.7612
2023-04-19T05:53:20.097Z,80.0379
2023-04-19T05:54:21.505Z,79.7953
2023-04-19T05:55:23.009Z,79.7989
2023-04-19T05:56:24.440Z,79.5553
2023-04-19T05:57:25.825Z,79.7496
2023-04-19T05:58:27.254Z,79.6852
2023-04-19T05:59:28.683Z,79.2144
2023-04-19T06:00:30.083Z,78.9528
2023-04-19T06:01:31.514Z,79.0382
2023-04-19T06:02:33.133Z,79.1632
2023-04-19T06:03:34.953Z,79.2373
2023-04-19T06:04:37.375Z,79.3056
2023-04-19T06:05:39.378Z,79.1090
2023-04-19T06:06:40.801Z,79.2810
2023-04-19T06:07:47.246Z,79.3306
2023-04-19T06:08:44.282Z,79.2087
2023-04-19T06:09:45.693Z,79.2414
2023-04-19T06:10:54.510Z,79.1957
2023-04-19T06:11:51.201Z,78.9906
2023-04-19T06:12:50.518Z,78.5743
2023-04-19T06:13:51.970Z,79.0054
2023-04-19T06:14:53.399Z,79.3557
2023-04-19T06:15:54.919Z,78.9252
2023-04-19T06:16:56.304Z,78.9475
2023-04-19T06:17:59.776Z,78.7490
2023-04-19T06:18:58.881Z,78.1306
2023-04-19T06:20:00.365Z,78.3767
2023-04-19T06:21:01.775Z,78.4825
2023-04-19T06:22:03.194Z,78.7205
2023-04-19T06:23:04.614Z,78.7558
2023-04-19T06:24:06.076Z,78.1970
2023-04-19T06:25:07.521Z,77.7965
2023-04-19T06:26:09.047Z,78.3634
2023-04-19T06:27:10.479Z,78.4158
2023-04-19T06:28:11.882Z,78.4279
2023-04-19T06:29:13.277Z,78.5385
2023-04-19T06:30:14.706Z,78.3850
2023-04-19T06:31:16.099Z,78.2670
2023-04-19T06:32:17.580Z,78.0032
2023-04-19T06:33:18.995Z,78.0543
2023-04-19T06:34:20.412Z,78.1896
2023-04-19T06:35:21.811Z,77.9645
2023-04-19T06:36:23.239Z,77.8209
2023-04-19T06:37:24.691Z,77.7108
2023-04-19T06:38:26.130Z,78.0270
2023-04-19T06:39:27.548Z,77.7087
2023-04-19T06:40:29.036Z,77.7992
2023-04-19T06:41:30.530Z,77.8518
2023-04-19T06:42:31.982Z,77.8371
2023-04-19T06:43:33.398Z,77.8564
2023-04-19T06:44:34.943Z,77.9728
2023-04-19T06:45:36.456Z,77.9530
2023-04-19T06:46:37.894Z,78.2485
2023-04-19T06:47:39.366Z,77.7531
2023-04-19T06:48:40.803Z,77.9445
2023-04-19T06:49:42.369Z,77.5268
2023-04-19T06:50:43.835Z,77.1297
2023-04-19T06:51:45.278Z,77.2280
2023-04-19T06:52:46.751Z,77.9416
2023-04-19T06:53:48.202Z,77.4072
2023-04-19T06:54:49.816Z,77.3373
2023-04-19T06:55:51.261Z,77.1817
2023-04-19T06:56:52.727Z,77.1184
2023-04-19T06:57:54.229Z,77.3810
2023-04-19T06:58:55.680Z,77.0447
2023-04-19T06:59:57.154Z,77.1538
2023-04-19T07:00:58.674Z,77.2714
2023-04-19T07:02:00.213Z,77.3815
2023-04-19T07:03:01.869Z,77.5852
2023-04-19T07:04:03.874Z,77.2303
2023-04-19T07:05:06.093Z,77.2542
2023-04-19T07:06:07.519Z,77.2946
2023-04-19T07:07:08.942Z,77.4009
2023-04-19T07:08:10.394Z,77.2205
2023-04-19T07:09:11.836Z,77.4531
2023-04-19T07:10:13.318Z,77.4170
2023-04-19T07:11:14.756Z,77.0752
2023-04-19T07:12:16.266Z,77.2118
2023-04-19T07:13:17.718Z,77.2063
2023-04-19T07:14:19.334Z,77.4304
2023-04-19T07:15:20.797Z,77.2841
2023-04-19T07:16:22.464Z,77.7204
2023-04-19T07:17:24.010Z,77.6109
2023-04-19T07:18:25.565Z,77.5954
2023-04-19T07:19:27.059Z,77.5554
2023-04-19T07:20:28.720Z,77.2278
2023-04-19T07:21:30.248Z,77.1320
2023-04-19T07:22:31.774Z,77.4756
2023-04-19T07:23:33.243Z,77.3886
2023-04-19T07:24:34.663Z,77.8883
2023-04-19T07:25:36.125Z,77.8326
2023-04-19T07:26:37.630Z,77.2815
2023-04-19T07:27:39.043Z,77.0542
2023-04-19T07:28:40.509Z,76.9175
2023-04-19T07:29:41.989Z,77.0258
2023-04-19T07:30:43.450Z,77.1233
2023-04-19T07:31:44.947Z,77.1382
2023-04-19T07:32:46.555Z,77.4511
2023-04-19T07:33:48.094Z,77.2709
2023-04-19T07:34:49.561Z,77.1090
2023-04-19T07:35:51.221Z,76.8974
2023-04-19T07:36:52.714Z,76.7981
2023-04-19T07:37:57.264Z,76.8618
2023-04-19T07:38:58.901Z,76.4855
2023-04-19T07:40:01.238Z,76.6982
2023-04-19T07:41:02.751Z,76.9061
2023-04-19T07:42:04.259Z,76.9698
2023-04-19T07:43:05.796Z,76.8158
2023-04-19T07:44:07.356Z,77.0473
2023-04-19T07:45:08.809Z,77.0193
2023-04-19T07:46:10.299Z,77.2344
2023-04-19T07:47:11.758Z,77.0185
2023-04-19T07:48:13.251Z,76.2274
2023-04-19T07:49:14.713Z,76.6438
2023-04-19T07:50:16.297Z,76.6953
2023-04-19T07:51:17.831Z,76.7819
2023-04-19T07:52:19.272Z,77.0244
2023-04-19T07:53:20.721Z,76.8919
2023-04-19T07:54:22.137Z,76.5418
2023-04-19T07:55:23.648Z,76.8295
2023-04-19T07:56:25.091Z,76.7126
2023-04-19T07:57:26.618Z,76.3707
2023-04-19T07:58:28.090Z,76.6804
2023-04-19T07:59:29.602Z,76.3932
2023-04-19T08:00:31.023Z,76.5714
2023-04-19T08:01:32.840Z,76.0613
2023-04-19T08:02:34.787Z,75.8464
2023-04-19T08:03:36.481Z,75.9938
2023-04-19T08:04:38.548Z,76.1104
2023-04-19T08:05:40.417Z,76.3161
2023-04-19T08:06:41.975Z,76.3638
2023-04-19T08:07:43.478Z,76.3833
2023-04-19T08:08:44.930Z,76.2666
2023-04-19T08:09:46.476Z,76.1078
2023-04-19T08:10:47.932Z,76.0685
2023-04-19T08:11:49.447Z,75.7602
2023-04-19T08:14:04.558Z,75.5045
2023-04-19T08:15:02.661Z,75.8424
2023-04-19T08:17:22.050Z,75.5257
2023-04-19T08:18:01.119Z,75.3578
2023-04-19T08:19:02.608Z,75.3699
2023-04-19T08:20:04.100Z,75.5493
2023-04-19T08:21:05.538Z,75.0579
2023-04-19T08:22:07.014Z,74.7118
2023-04-19T08:23:20.363Z,75.0758
2023-04-19T08:24:10.483Z,75.2999
2023-04-19T08:25:11.900Z,74.8346
2023-04-19T08:26:13.378Z,75.1194
2023-04-19T08:27:14.881Z,74.8005
2023-04-19T08:28:16.354Z,74.7548
2023-04-19T08:29:17.945Z,74.3886
2023-04-19T08:30:19.595Z,74.1750
2023-04-19T08:31:21.056Z,74.0489
2023-04-19T08:32:22.552Z,74.2492
2023-04-19T08:33:24.040Z,74.1082
2023-04-19T08:34:25.469Z,74.5783
2023-04-19T08:35:26.908Z,74.9348
2023-04-19T08:36:37.104Z,74.4698
2023-04-19T08:37:30.451Z,74.3807
2023-04-19T08:38:31.975Z,74.2036
2023-04-19T08:39:34.262Z,73.8746
2023-04-19T08:40:33.545Z,74.1107
2023-04-19T08:41:34.999Z,73.8524
2023-04-19T08:42:37.249Z,73.6648
2023-04-19T08:43:40.486Z,74.0140
2023-04-19T08:44:53.795Z,73.6953
2023-04-19T08:45:43.007Z,73.6887
2023-04-19T08:46:44.421Z,73.6812
2023-04-19T08:47:58.665Z,73.4780
2023-04-19T08:48:47.942Z,73.4654
2023-04-19T08:49:56.300Z,73.1374
2023-04-19T08:51:04.446Z,73.7671
2023-04-19T08:51:53.494Z,74.2100
2023-04-19T08:52:59.053Z,74.0940
2023-04-19T08:53:56.975Z,73.8769
2023-04-19T08:54:58.471Z,73.8765
2023-04-19T08:56:10.023Z,73.4362
2023-04-19T08:57:01.958Z,72.9862
2023-04-19T08:58:04.197Z,73.2128
2023-04-19T08:59:19.253Z,73.7240
2023-04-19T09:00:06.619Z,73.5225
2023-04-19T09:01:08.301Z,73.3773
2023-04-19T09:02:08.733Z,73.6507
2023-04-19T09:03:10.646Z,73.9875
2023-04-19T09:05:13.378Z,74.1136
2023-04-19T09:06:15.293Z,73.9874
2023-04-19T09:07:16.842Z,73.6865
2023-04-19T09:08:18.297Z,73.6343
2023-04-19T09:10:21.576Z,73.6289
2023-04-19T09:11:23.085Z,73.6836
2023-04-19T09:12:24.537Z,73.5280
2023-04-19T09:13:26.032Z,73.1479
2023-04-19T09:14:27.467Z,73.0515
2023-04-19T09:15:28.940Z,73.2508
2023-04-19T09:16:30.414Z,73.1062
2023-04-19T09:17:31.888Z,72.5107
2023-04-19T09:18:35.933Z,72.4373
2023-04-19T09:19:35.372Z,71.3691
2023-04-19T09:20:36.840Z,70.6859
2023-04-19T09:21:38.270Z,70.5677
2023-04-19T09:22:39.684Z,71.1657
2023-04-19T09:23:41.148Z,70.3734
2023-04-19T09:26:06.280Z,70.9759
2023-04-19T09:26:46.233Z,70.8037
2023-04-19T09:27:47.669Z,70.8113
2023-04-19T09:28:49.081Z,70.9954
2023-04-19T09:29:50.496Z,71.3987
2023-04-19T09:31:00.668Z,71.2361
2023-04-19T09:31:54.092Z,71.6953
2023-04-19T09:32:55.568Z,72.3731
2023-04-19T09:33:56.983Z,72.1572
2023-04-19T09:34:58.454Z,71.7966
2023-04-19T09:35:59.902Z,71.6219
2023-04-19T09:37:12.177Z,71.2378
2023-04-19T09:38:06.721Z,71.1628
2023-04-19T09:39:05.934Z,71.2561
2023-04-19T09:40:07.381Z,71.0769
2023-04-19T09:41:08.800Z,71.6471
2023-04-19T09:42:10.260Z,70.8560
2023-04-19T09:44:50.198Z,71.2911
2023-04-19T09:46:17.344Z,70.5762
2023-04-19T09:47:18.716Z,70.9626
2023-04-19T09:48:20.159Z,70.9820
2023-04-19T09:49:33.547Z,70.8328
2023-04-19T09:50:27.288Z,70.9168
2023-04-19T09:51:23.753Z,70.3778
2023-04-19T09:52:25.150Z,70.3671
2023-04-19T09:53:26.528Z,70.4606
2023-04-19T09:54:27.941Z,70.1056
2023-04-19T09:55:31.721Z,70.2577
2023-04-19T09:56:31.350Z,70.0994
2023-04-19T09:57:32.766Z,69.4198
2023-04-19T09:59:35.919Z,69.9949
2023-04-19T10:00:47.996Z,70.3523
2023-04-19T10:01:39.368Z,70.7110
2023-04-19T10:02:40.949Z,70.2600
2023-04-19T10:03:42.619Z,70.0272
2023-04-19T10:05:46.317Z,69.9839
2023-04-19T10:07:07.403Z,70.4810
2023-04-19T10:07:49.874Z,70.7215
2023-04-19T10:08:51.621Z,70.7544
2023-04-19T10:09:55.023Z,71.4462
2023-04-19T10:10:55.236Z,71.3381
2023-04-19T10:12:03.764Z,70.9649
2023-04-19T10:13:15.891Z,70.4907
2023-04-19T10:14:00.900Z,70.8438
2023-04-19T10:15:02.313Z,70.3813
2023-04-19T10:16:15.502Z,70.7198
2023-04-19T10:17:05.794Z,70.9305
2023-04-19T10:18:07.413Z,71.0327
2023-04-19T10:19:10.054Z,70.5033
2023-04-19T10:20:09.224Z,70.8251
2023-04-19T10:21:10.608Z,70.7495
2023-04-19T10:22:11.990Z,70.6419
2023-04-19T10:23:13.487Z,70.2876
2023-04-19T10:24:14.893Z,70.6209
2023-04-19T10:25:16.356Z,70.3927
2023-04-19T10:26:17.765Z,70.1073
2023-04-19T10:27:19.216Z,69.9956
2023-04-19T10:28:20.647Z,69.8311
2023-04-19T10:29:22.074Z,69.3412
2023-04-19T10:30:23.517Z,69.9167
2023-04-19T10:31:24.912Z,69.3083
2023-04-19T10:32:26.380Z,68.9580
2023-04-19T10:33:27.898Z,68.7660
2023-04-19T10:34:29.350Z,68.4966
2023-04-19T10:35:30.753Z,67.6000
2023-04-19T10:36:32.189Z,67.6622
2023-04-19T10:37:33.793Z,67.9535
2023-04-19T10:38:35.329Z,68.7569
2023-04-19T10:39:36.794Z,68.7698
2023-04-19T10:40:38.178Z,68.5121
2023-04-19T10:41:39.654Z,68.8366
2023-04-19T10:42:41.037Z,69.1266
2023-04-19T10:43:42.477Z,69.2461
2023-04-19T10:44:43.866Z,69.6479
2023-04-19T10:45:45.313Z,70.2509
2023-04-19T10:46:46.707Z,70.0827
2023-04-19T10:47:48.195Z,70.1386
2023-04-19T10:48:49.701Z,70.5892
2023-04-19T10:49:51.181Z,71.2572
2023-04-19T10:50:52.634Z,70.6941
2023-04-19T10:51:54.059Z,70.9452
2023-04-19T10:52:55.484Z,70.7138
2023-04-19T10:53:56.940Z,71.2398
2023-04-19T10:54:58.374Z,70.7963
2023-04-19T10:55:59.779Z,69.9233
2023-04-19T10:57:01.201Z,69.7875
2023-04-19T10:58:02.602Z,70.0028
2023-04-19T10:59:04.036Z,69.5370
2023-04-19T11:00:05.471Z,69.5214
2023-04-19T11:01:06.889Z,70.1544
2023-04-19T11:02:08.395Z,70.1116
2023-04-19T11:03:10.086Z,70.1514
2023-04-19T11:04:11.902Z,69.8867
2023-04-19T11:05:13.603Z,70.2346
2023-04-19T11:06:15.014Z,70.0278
2023-04-19T11:07:16.386Z,69.7858
2023-04-19T11:08:17.799Z,69.5857
2023-04-19T11:09:19.260Z,70.0988
2023-04-19T11:10:20.719Z,69.5932
2023-04-19T11:11:22.143Z,69.0871
2023-04-19T11:12:23.597Z,69.5729
2023-04-19T11:13:25.039Z,69.5088
2023-04-19T11:14:26.493Z,69.4441
2023-04-19T11:15:27.969Z,69.6144
2023-04-19T11:16:42.434Z,70.2476
2023-04-19T11:17:31.598Z,69.5766
2023-04-19T11:18:33.301Z,69.0258
2023-04-19T11:19:34.683Z,68.9494
2023-04-19T11:20:36.157Z,68.9575
2023-04-19T11:21:37.554Z,68.7092
2023-04-19T11:22:39.052Z,69.1892
2023-04-19T11:23:40.455Z,69.3089
2023-04-19T11:24:41.873Z,69.0274
2023-04-19T11:25:43.296Z,68.5145
2023-04-19T11:26:44.752Z,68.0810
2023-04-19T11:27:46.230Z,68.0675
2023-04-19T11:28:47.680Z,67.3842
2023-04-19T11:29:49.135Z,68.0860
2023-04-19T11:30:50.622Z,67.6074
2023-04-19T11:31:52.137Z,67.2963
2023-04-19T11:32:53.666Z,66.9014
2023-04-19T11:33:55.439Z,67.6001
2023-04-19T11:34:57.069Z,67.6537
2023-04-19T11:35:58.509Z,67.2713
2023-04-19T11:36:59.938Z,67.6414
2023-04-19T11:38:01.428Z,67.5795
2023-04-19T11:39:02.898Z,68.1840
2023-04-19T11:40:05.104Z,68.8028
2023-04-19T11:41:06.908Z,69.2341
2023-04-19T11:42:08.340Z,68.5773
2023-04-19T11:43:09.710Z,68.0548
2023-04-19T11:44:11.159Z,67.8289
2023-04-19T11:45:25.897Z,67.8439
2023-04-19T11:46:14.737Z,68.1031
2023-04-19T11:47:16.251Z,67.8038
2023-04-19T11:48:17.888Z,68.0394
2023-04-19T11:49:19.348Z,68.3036
2023-04-19T11:50:20.831Z,68.1345
2023-04-19T11:51:22.460Z,68.3817
2023-04-19T11:52:23.913Z,68.6656
2023-04-19T11:53:25.371Z,68.8668
2023-04-19T11:54:26.854Z,68.4292
2023-04-19T11:55:28.272Z,68.3035
2023-04-19T11:56:29.732Z,68.4714
2023-04-19T11:57:31.183Z,67.9616
2023-04-19T11:58:32.617Z,68.6164
2023-04-19T11:59:34.064Z,68.4107
2023-04-19T12:00:35.524Z,68.2781
2023-04-19T12:01:36.918Z,68.0552
2023-04-19T12:02:38.610Z,67.8390
2023-04-19T12:03:40.335Z,67.6099
2023-04-19T12:04:42.205Z,67.0083
2023-04-19T12:05:44.146Z,67.3738
2023-04-19T12:06:45.666Z,67.5349
2023-04-19T12:07:47.124Z,67.1476
2023-04-19T12:08:48.575Z,66.4726
2023-04-19T12:09:50.032Z,66.3193
2023-04-19T12:10:51.519Z,66.3463
2023-04-19T12:11:52.940Z,66.0722
2023-04-19T12:12:54.383Z,66.0586
2023-04-19T12:13:55.813Z,66.9135
2023-04-19T12:14:57.289Z,67.0953
2023-04-19T12:15:58.758Z,66.8073
2023-04-19T12:17:00.322Z,66.1596
2023-04-19T12:18:01.876Z,66.1254
2023-04-19T12:19:03.476Z,65.8977
2023-04-19T12:20:05.027Z,66.3686
2023-04-19T12:21:06.465Z,66.0533
2023-04-19T12:22:07.921Z,66.5433
2023-04-19T12:23:09.401Z,66.7135
2023-04-19T12:24:10.918Z,66.7383
2023-04-19T12:25:12.404Z,66.4079
2023-04-19T12:26:13.839Z,66.3182
2023-04-19T12:27:15.359Z,66.3386
2023-04-19T12:28:16.836Z,66.1225
2023-04-19T12:29:18.385Z,66.2408
2023-04-19T12:30:19.836Z,66.7100
2023-04-19T12:31:21.250Z,67.0460
2023-04-19T12:32:22.733Z,67.3749
2023-04-19T12:33:24.240Z,67.4782